Lake Arthur, New Mexico
Current Conditions -  °F | °C
As of 6:51 PM on Wednesday 22 Oct 2014 (Local Time) from KROW Reporting Station
Clear Clear  
Wind Chill: 66°   Ceiling: Unl
Heat Index: 66°   Visibility: 10mi
Dew Point: 58°   Wind: 7mph
Humidity: 75%   Direction: 170°S
Pressure: 30.07"   Gusts: NA
Location:  33°N, 104.37°W
Report Text: KROW 230051Z 17006KT 10SM CLR 19/14 A3007 RMK AO2 SLP136 T01890144
Loading
Personal Weather Stations






























Interactive Weather Map
Tropical Storm Tracking
New forecast layout! Learn more

10-Day Weather Forecast

Advertisements
Track Severe Weather on mobile